sensor_id;sensor_type;location;lat;lon;timestamp;P1;durP1;ratioP1;P2;durP2;ratioP2
22963;SDS011;11648;49.306;6.934;2022-09-09T00:00:47;5.07;;;0.83;;
22963;SDS011;11648;49.306;6.934;2022-09-09T00:03:26;4.83;;;1.27;;
22963;SDS011;11648;49.306;6.934;2022-09-09T00:08:54;6.40;;;0.70;;
22963;SDS011;11648;49.306;6.934;2022-09-09T00:11:27;3.17;;;0.60;;
22963;SDS011;11648;49.306;6.934;2022-09-09T00:14:05;3.23;;;0.80;;
22963;SDS011;11648;49.306;6.934;2022-09-09T00:16:57;6.17;;;0.90;;
22963;SDS011;11648;49.306;6.934;2022-09-09T00:19:43;6.40;;;0.87;;
22963;SDS011;11648;49.306;6.934;2022-09-09T00:22:18;3.77;;;1.10;;
22963;SDS011;11648;49.306;6.934;2022-09-09T00:24:53;3.07;;;0.70;;
22963;SDS011;11648;49.306;6.934;2022-09-09T00:30:31;3.87;;;0.90;;
22963;SDS011;11648;49.306;6.934;2022-09-09T00:33:05;2.47;;;0.50;;
22963;SDS011;11648;49.306;6.934;2022-09-09T00:35:46;2.53;;;0.70;;
22963;SDS011;11648;49.306;6.934;2022-09-09T00:43:32;3.50;;;0.80;;
22963;SDS011;11648;49.306;6.934;2022-09-09T00:46:05;4.83;;;0.60;;
22963;SDS011;11648;49.306;6.934;2022-09-09T00:51:22;3.13;;;0.80;;
22963;SDS011;11648;49.306;6.934;2022-09-09T00:56:55;4.63;;;0.80;;
22963;SDS011;11648;49.306;6.934;2022-09-09T01:05:02;4.13;;;0.70;;
22963;SDS011;11648;49.306;6.934;2022-09-09T01:07:36;5.23;;;0.83;;
22963;SDS011;11648;49.306;6.934;2022-09-09T01:10:17;5.73;;;1.13;;
22963;SDS011;11648;49.306;6.934;2022-09-09T01:12:53;4.30;;;0.80;;
22963;SDS011;11648;49.306;6.934;2022-09-09T01:15:27;3.17;;;0.80;;
22963;SDS011;11648;49.306;6.934;2022-09-09T01:17:59;2.63;;;0.70;;
22963;SDS011;11648;49.306;6.934;2022-09-09T01:20:43;4.67;;;0.80;;
22963;SDS011;11648;49.306;6.934;2022-09-09T01:23:27;4.60;;;0.80;;
22963;SDS011;11648;49.306;6.934;2022-09-09T01:28:49;5.07;;;0.90;;
22963;SDS011;11648;49.306;6.934;2022-09-09T01:31:23;4.53;;;0.80;;
22963;SDS011;11648;49.306;6.934;2022-09-09T01:33:55;3.63;;;0.70;;
22963;SDS011;11648;49.306;6.934;2022-09-09T01:36:42;5.50;;;0.50;;
22963;SDS011;11648;49.306;6.934;2022-09-09T01:39:12;4.10;;;0.77;;
22963;SDS011;11648;49.306;6.934;2022-09-09T01:41:40;3.20;;;0.80;;
22963;SDS011;11648;49.306;6.934;2022-09-09T01:44:10;3.47;;;0.67;;
22963;SDS011;11648;49.306;6.934;2022-09-09T01:46:39;2.27;;;0.67;;
22963;SDS011;11648;49.306;6.934;2022-09-09T01:49:13;3.33;;;0.70;;
22963;SDS011;11648;49.306;6.934;2022-09-09T01:51:41;4.40;;;0.70;;
22963;SDS011;11648;49.306;6.934;2022-09-09T01:54:12;4.43;;;0.90;;
22963;SDS011;11648;49.306;6.934;2022-09-09T01:59:15;4.60;;;0.80;;
22963;SDS011;11648;49.306;6.934;2022-09-09T02:02:19;4.00;;;0.83;;
22963;SDS011;11648;49.306;6.934;2022-09-09T02:08:21;3.77;;;0.70;;
22963;SDS011;11648;49.306;6.934;2022-09-09T02:11:11;5.27;;;0.77;;
22963;SDS011;11648;49.306;6.934;2022-09-09T02:13:51;3.07;;;0.67;;
22963;SDS011;11648;49.306;6.934;2022-09-09T02:19:35;2.53;;;0.70;;
22963;SDS011;11648;49.306;6.934;2022-09-09T02:22:15;2.90;;;0.60;;
22963;SDS011;11648;49.306;6.934;2022-09-09T02:24:46;6.27;;;0.80;;
22963;SDS011;11648;49.306;6.934;2022-09-09T02:27:21;4.77;;;0.53;;
22963;SDS011;11648;49.306;6.934;2022-09-09T02:29:50;6.10;;;0.70;;
22963;SDS011;11648;49.306;6.934;2022-09-09T02:32:31;1.90;;;0.60;;
22963;SDS011;11648;49.306;6.934;2022-09-09T02:35:06;3.87;;;0.80;;
22963;SDS011;11648;49.306;6.934;2022-09-09T02:37:39;4.00;;;0.70;;
22963;SDS011;11648;49.306;6.934;2022-09-09T02:40:09;4.37;;;0.93;;
22963;SDS011;11648;49.306;6.934;2022-09-09T02:42:44;6.33;;;1.10;;
22963;SDS011;11648;49.306;6.934;2022-09-09T02:45:13;5.33;;;1.27;;
22963;SDS011;11648;49.306;6.934;2022-09-09T02:47:56;5.40;;;0.70;;
22963;SDS011;11648;49.306;6.934;2022-09-09T02:50:41;4.63;;;0.80;;
22963;SDS011;11648;49.306;6.934;2022-09-09T02:53:24;2.23;;;0.60;;
22963;SDS011;11648;49.306;6.934;2022-09-09T02:56:03;5.83;;;0.87;;
22963;SDS011;11648;49.306;6.934;2022-09-09T02:58:39;2.93;;;0.43;;
22963;SDS011;11648;49.306;6.934;2022-09-09T03:01:06;2.73;;;0.70;;
22963;SDS011;11648;49.306;6.934;2022-09-09T03:03:33;3.03;;;0.60;;
22963;SDS011;11648;49.306;6.934;2022-09-09T03:06:05;8.10;;;0.60;;
22963;SDS011;11648;49.306;6.934;2022-09-09T03:08:32;4.97;;;0.70;;
22963;SDS011;11648;49.306;6.934;2022-09-09T03:10:59;3.70;;;0.60;;
22963;SDS011;11648;49.306;6.934;2022-09-09T03:13:32;3.67;;;0.67;;
22963;SDS011;11648;49.306;6.934;2022-09-09T03:16:00;3.77;;;1.00;;
22963;SDS011;11648;49.306;6.934;2022-09-09T03:18:30;3.80;;;0.90;;
22963;SDS011;11648;49.306;6.934;2022-09-09T03:20:58;4.40;;;0.80;;
22963;SDS011;11648;49.306;6.934;2022-09-09T03:23:27;6.53;;;0.70;;
22963;SDS011;11648;49.306;6.934;2022-09-09T03:25:56;4.00;;;0.70;;
22963;SDS011;11648;49.306;6.934;2022-09-09T03:28:34;3.93;;;0.70;;
22963;SDS011;11648;49.306;6.934;2022-09-09T03:31:03;3.57;;;0.60;;
22963;SDS011;11648;49.306;6.934;2022-09-09T03:33:38;4.73;;;0.90;;
22963;SDS011;11648;49.306;6.934;2022-09-09T03:36:09;5.83;;;0.87;;
22963;SDS011;11648;49.306;6.934;2022-09-09T03:38:37;4.80;;;0.70;;
22963;SDS011;11648;49.306;6.934;2022-09-09T03:41:05;4.83;;;0.70;;
22963;SDS011;11648;49.306;6.934;2022-09-09T03:43:33;3.67;;;0.60;;
22963;SDS011;11648;49.306;6.934;2022-09-09T03:46:00;3.93;;;0.60;;
22963;SDS011;11648;49.306;6.934;2022-09-09T03:48:28;3.83;;;0.80;;
22963;SDS011;11648;49.306;6.934;2022-09-09T03:50:56;3.33;;;0.80;;
22963;SDS011;11648;49.306;6.934;2022-09-09T03:53:24;6.20;;;0.93;;
22963;SDS011;11648;49.306;6.934;2022-09-09T03:55:52;3.60;;;0.80;;
22963;SDS011;11648;49.306;6.934;2022-09-09T03:58:23;4.13;;;0.67;;
22963;SDS011;11648;49.306;6.934;2022-09-09T04:01:13;3.87;;;0.80;;
22963;SDS011;11648;49.306;6.934;2022-09-09T04:03:44;4.27;;;0.90;;
22963;SDS011;11648;49.306;6.934;2022-09-09T04:06:12;3.43;;;0.80;;
22963;SDS011;11648;49.306;6.934;2022-09-09T04:08:44;4.77;;;0.70;;
22963;SDS011;11648;49.306;6.934;2022-09-09T04:11:13;5.23;;;0.70;;
22963;SDS011;11648;49.306;6.934;2022-09-09T04:13:40;4.20;;;0.83;;
22963;SDS011;11648;49.306;6.934;2022-09-09T04:16:10;4.50;;;0.70;;
22963;SDS011;11648;49.306;6.934;2022-09-09T04:18:42;4.07;;;0.77;;
22963;SDS011;11648;49.306;6.934;2022-09-09T04:21:11;4.10;;;0.80;;
22963;SDS011;11648;49.306;6.934;2022-09-09T04:23:39;3.53;;;0.70;;
22963;SDS011;11648;49.306;6.934;2022-09-09T04:26:07;3.60;;;0.70;;
22963;SDS011;11648;49.306;6.934;2022-09-09T04:28:35;3.00;;;0.63;;
22963;SDS011;11648;49.306;6.934;2022-09-09T04:31:11;4.83;;;0.70;;
22963;SDS011;11648;49.306;6.934;2022-09-09T04:33:44;3.47;;;0.87;;
22963;SDS011;11648;49.306;6.934;2022-09-09T04:36:11;4.03;;;0.70;;
22963;SDS011;11648;49.306;6.934;2022-09-09T04:38:39;4.93;;;1.03;;
22963;SDS011;11648;49.306;6.934;2022-09-09T04:41:06;4.37;;;1.00;;
22963;SDS011;11648;49.306;6.934;2022-09-09T04:43:36;6.50;;;0.80;;
22963;SDS011;11648;49.306;6.934;2022-09-09T04:46:06;4.03;;;0.70;;
22963;SDS011;11648;49.306;6.934;2022-09-09T04:48:33;2.27;;;0.57;;
22963;SDS011;11648;49.306;6.934;2022-09-09T04:51:02;6.10;;;0.80;;
22963;SDS011;11648;49.306;6.934;2022-09-09T04:53:32;3.43;;;0.83;;
22963;SDS011;11648;49.306;6.934;2022-09-09T04:56:04;3.60;;;0.60;;
22963;SDS011;11648;49.306;6.934;2022-09-09T04:58:40;5.23;;;0.80;;
22963;SDS011;11648;49.306;6.934;2022-09-09T05:01:14;4.80;;;0.83;;
22963;SDS011;11648;49.306;6.934;2022-09-09T05:03:45;1.97;;;0.67;;
22963;SDS011;11648;49.306;6.934;2022-09-09T05:06:16;6.20;;;0.97;;
22963;SDS011;11648;49.306;6.934;2022-09-09T05:08:47;3.73;;;0.80;;
22963;SDS011;11648;49.306;6.934;2022-09-09T05:13:47;3.50;;;0.60;;
22963;SDS011;11648;49.306;6.934;2022-09-09T05:16:14;3.13;;;0.80;;
22963;SDS011;11648;49.306;6.934;2022-09-09T05:18:41;4.67;;;0.83;;
22963;SDS011;11648;49.306;6.934;2022-09-09T05:21:10;4.07;;;0.70;;
22963;SDS011;11648;49.306;6.934;2022-09-09T05:23:37;7.77;;;0.80;;
22963;SDS011;11648;49.306;6.934;2022-09-09T05:26:05;4.83;;;1.20;;
22963;SDS011;11648;49.306;6.934;2022-09-09T05:28:35;3.27;;;0.60;;
22963;SDS011;11648;49.306;6.934;2022-09-09T05:31:06;3.73;;;1.20;;
22963;SDS011;11648;49.306;6.934;2022-09-09T05:33:35;3.13;;;0.90;;
22963;SDS011;11648;49.306;6.934;2022-09-09T05:36:04;5.30;;;0.77;;
22963;SDS011;11648;49.306;6.934;2022-09-09T05:38:34;3.93;;;1.07;;
22963;SDS011;11648;49.306;6.934;2022-09-09T05:41:02;5.17;;;0.60;;
22963;SDS011;11648;49.306;6.934;2022-09-09T05:43:29;3.50;;;0.80;;
22963;SDS011;11648;49.306;6.934;2022-09-09T05:46:01;6.43;;;0.90;;
22963;SDS011;11648;49.306;6.934;2022-09-09T05:48:29;4.17;;;0.80;;
22963;SDS011;11648;49.306;6.934;2022-09-09T05:51:01;4.33;;;0.80;;
22963;SDS011;11648;49.306;6.934;2022-09-09T05:53:29;4.00;;;0.80;;
22963;SDS011;11648;49.306;6.934;2022-09-09T05:56:22;4.23;;;0.77;;
22963;SDS011;11648;49.306;6.934;2022-09-09T05:58:52;4.07;;;0.80;;
22963;SDS011;11648;49.306;6.934;2022-09-09T06:01:31;5.97;;;1.30;;
22963;SDS011;11648;49.306;6.934;2022-09-09T06:04:00;5.87;;;0.73;;
22963;SDS011;11648;49.306;6.934;2022-09-09T06:06:35;3.07;;;0.60;;
22963;SDS011;11648;49.306;6.934;2022-09-09T06:09:09;5.93;;;1.10;;
22963;SDS011;11648;49.306;6.934;2022-09-09T06:11:39;6.20;;;0.97;;
22963;SDS011;11648;49.306;6.934;2022-09-09T06:14:07;3.07;;;0.90;;
22963;SDS011;11648;49.306;6.934;2022-09-09T06:16:36;6.90;;;1.40;;
22963;SDS011;11648;49.306;6.934;2022-09-09T06:19:09;6.33;;;1.20;;
22963;SDS011;11648;49.306;6.934;2022-09-09T06:21:36;7.63;;;1.10;;
22963;SDS011;11648;49.306;6.934;2022-09-09T06:24:06;5.37;;;1.07;;
22963;SDS011;11648;49.306;6.934;2022-09-09T06:26:38;5.77;;;1.07;;
22963;SDS011;11648;49.306;6.934;2022-09-09T06:29:11;7.13;;;1.00;;
22963;SDS011;11648;49.306;6.934;2022-09-09T06:31:40;3.53;;;0.80;;
22963;SDS011;11648;49.306;6.934;2022-09-09T06:34:34;4.07;;;0.90;;
22963;SDS011;11648;49.306;6.934;2022-09-09T06:37:02;7.67;;;1.27;;
22963;SDS011;11648;49.306;6.934;2022-09-09T06:39:35;5.80;;;1.00;;
22963;SDS011;11648;49.306;6.934;2022-09-09T06:42:02;4.87;;;1.20;;
22963;SDS011;11648;49.306;6.934;2022-09-09T06:44:42;7.43;;;1.10;;
22963;SDS011;11648;49.306;6.934;2022-09-09T06:47:13;6.43;;;1.00;;
22963;SDS011;11648;49.306;6.934;2022-09-09T06:49:41;5.37;;;0.80;;
22963;SDS011;11648;49.306;6.934;2022-09-09T06:52:13;4.83;;;1.10;;
22963;SDS011;11648;49.306;6.934;2022-09-09T06:54:40;3.57;;;0.60;;
22963;SDS011;11648;49.306;6.934;2022-09-09T06:57:07;6.40;;;1.00;;
22963;SDS011;11648;49.306;6.934;2022-09-09T06:59:56;4.43;;;0.93;;
22963;SDS011;11648;49.306;6.934;2022-09-09T07:02:23;6.90;;;1.10;;
22963;SDS011;11648;49.306;6.934;2022-09-09T07:04:51;5.70;;;1.10;;
22963;SDS011;11648;49.306;6.934;2022-09-09T07:07:18;7.27;;;1.27;;
22963;SDS011;11648;49.306;6.934;2022-09-09T07:09:45;4.20;;;0.90;;
22963;SDS011;11648;49.306;6.934;2022-09-09T07:12:13;5.00;;;0.90;;
22963;SDS011;11648;49.306;6.934;2022-09-09T07:14:47;6.43;;;1.00;;
22963;SDS011;11648;49.306;6.934;2022-09-09T07:17:14;5.30;;;0.90;;
22963;SDS011;11648;49.306;6.934;2022-09-09T07:19:41;7.60;;;1.33;;
22963;SDS011;11648;49.306;6.934;2022-09-09T07:22:08;5.13;;;1.23;;
22963;SDS011;11648;49.306;6.934;2022-09-09T07:24:37;8.83;;;1.33;;
22963;SDS011;11648;49.306;6.934;2022-09-09T07:27:05;5.40;;;1.00;;
22963;SDS011;11648;49.306;6.934;2022-09-09T07:29:32;4.83;;;0.90;;
22963;SDS011;11648;49.306;6.934;2022-09-09T07:31:59;7.30;;;1.37;;
22963;SDS011;11648;49.306;6.934;2022-09-09T07:34:31;7.37;;;1.33;;
22963;SDS011;11648;49.306;6.934;2022-09-09T07:36:58;6.97;;;1.30;;
22963;SDS011;11648;49.306;6.934;2022-09-09T07:39:26;8.10;;;1.33;;
22963;SDS011;11648;49.306;6.934;2022-09-09T07:41:53;6.50;;;1.20;;
22963;SDS011;11648;49.306;6.934;2022-09-09T07:44:25;7.77;;;1.20;;
22963;SDS011;11648;49.306;6.934;2022-09-09T07:47:01;7.90;;;1.20;;
22963;SDS011;11648;49.306;6.934;2022-09-09T07:49:34;8.20;;;1.80;;
22963;SDS011;11648;49.306;6.934;2022-09-09T07:52:03;6.57;;;1.40;;
22963;SDS011;11648;49.306;6.934;2022-09-09T07:54:31;6.07;;;1.50;;
22963;SDS011;11648;49.306;6.934;2022-09-09T07:57:00;7.57;;;1.20;;
22963;SDS011;11648;49.306;6.934;2022-09-09T07:59:29;8.87;;;1.70;;
22963;SDS011;11648;49.306;6.934;2022-09-09T08:01:57;6.90;;;1.20;;
22963;SDS011;11648;49.306;6.934;2022-09-09T08:04:28;9.87;;;1.27;;
22963;SDS011;11648;49.306;6.934;2022-09-09T08:06:56;7.43;;;1.77;;
22963;SDS011;11648;49.306;6.934;2022-09-09T08:09:26;7.90;;;1.33;;
22963;SDS011;11648;49.306;6.934;2022-09-09T08:12:17;8.23;;;1.30;;
22963;SDS011;11648;49.306;6.934;2022-09-09T08:14:44;8.20;;;1.30;;
22963;SDS011;11648;49.306;6.934;2022-09-09T08:17:11;7.67;;;1.10;;
22963;SDS011;11648;49.306;6.934;2022-09-09T08:19:38;7.63;;;1.50;;
22963;SDS011;11648;49.306;6.934;2022-09-09T08:22:12;5.17;;;1.20;;
22963;SDS011;11648;49.306;6.934;2022-09-09T08:24:39;5.67;;;1.30;;
22963;SDS011;11648;49.306;6.934;2022-09-09T08:27:07;5.43;;;1.07;;
22963;SDS011;11648;49.306;6.934;2022-09-09T08:29:37;13.30;;;1.40;;
22963;SDS011;11648;49.306;6.934;2022-09-09T08:32:05;8.70;;;1.37;;
22963;SDS011;11648;49.306;6.934;2022-09-09T08:34:33;6.13;;;1.33;;
22963;SDS011;11648;49.306;6.934;2022-09-09T08:37:05;7.37;;;1.17;;
22963;SDS011;11648;49.306;6.934;2022-09-09T08:39:36;7.70;;;1.10;;
22963;SDS011;11648;49.306;6.934;2022-09-09T08:48:51;4.97;;;1.23;;
22963;SDS011;11648;49.306;6.934;2022-09-09T08:50:56;5.67;;;0.87;;
22963;SDS011;11648;49.306;6.934;2022-09-09T08:53:34;7.40;;;1.20;;
22963;SDS011;11648;49.306;6.934;2022-09-09T08:56:09;7.10;;;1.20;;
22963;SDS011;11648;49.306;6.934;2022-09-09T08:58:49;5.33;;;1.37;;
22963;SDS011;11648;49.306;6.934;2022-09-09T09:04:37;5.27;;;1.27;;
22963;SDS011;11648;49.306;6.934;2022-09-09T09:07:28;6.90;;;0.87;;
22963;SDS011;11648;49.306;6.934;2022-09-09T09:10:23;5.13;;;0.98;;
22963;SDS011;11648;49.306;6.934;2022-09-09T09:13:10;6.05;;;1.35;;
22963;SDS011;11648;49.306;6.934;2022-09-09T09:15:45;4.80;;;1.00;;
22963;SDS011;11648;49.306;6.934;2022-09-09T09:18:16;5.93;;;1.20;;
22963;SDS011;11648;49.306;6.934;2022-09-09T09:20:47;6.40;;;1.20;;
22963;SDS011;11648;49.306;6.934;2022-09-09T09:23:35;5.67;;;1.00;;
22963;SDS011;11648;49.306;6.934;2022-09-09T09:26:11;5.73;;;0.93;;
22963;SDS011;11648;49.306;6.934;2022-09-09T09:28:39;4.85;;;1.00;;
22963;SDS011;11648;49.306;6.934;2022-09-09T09:31:12;3.97;;;1.00;;
22963;SDS011;11648;49.306;6.934;2022-09-09T09:33:48;5.90;;;1.10;;
22963;SDS011;11648;49.306;6.934;2022-09-09T09:36:19;4.40;;;1.00;;
22963;SDS011;11648;49.306;6.934;2022-09-09T09:38:55;4.00;;;0.90;;
22963;SDS011;11648;49.306;6.934;2022-09-09T09:41:45;6.78;;;1.38;;
22963;SDS011;11648;49.306;6.934;2022-09-09T09:44:22;4.97;;;1.20;;
22963;SDS011;11648;49.306;6.934;2022-09-09T09:46:51;5.68;;;1.20;;
22963;SDS011;11648;49.306;6.934;2022-09-09T09:49:19;7.57;;;1.17;;
22963;SDS011;11648;49.306;6.934;2022-09-09T09:51:46;4.93;;;1.00;;
22963;SDS011;11648;49.306;6.934;2022-09-09T09:56:45;4.65;;;1.00;;
22963;SDS011;11648;49.306;6.934;2022-09-09T10:02:17;4.20;;;0.80;;
22963;SDS011;11648;49.306;6.934;2022-09-09T10:13:58;4.72;;;1.17;;
22963;SDS011;11648;49.306;6.934;2022-09-09T10:16:42;6.93;;;1.48;;
22963;SDS011;11648;49.306;6.934;2022-09-09T10:19:21;3.38;;;0.85;;
22963;SDS011;11648;49.306;6.934;2022-09-09T10:22:00;6.25;;;1.00;;
22963;SDS011;11648;49.306;6.934;2022-09-09T10:38:33;4.07;;;0.83;;
22963;SDS011;11648;49.306;6.934;2022-09-09T10:46:39;3.60;;;0.83;;
22963;SDS011;11648;49.306;6.934;2022-09-09T10:52:07;2.90;;;0.70;;
22963;SDS011;11648;49.306;6.934;2022-09-09T10:55:18;4.80;;;0.90;;
22963;SDS011;11648;49.306;6.934;2022-09-09T10:57:47;3.43;;;0.80;;
22963;SDS011;11648;49.306;6.934;2022-09-09T11:03:00;5.70;;;1.10;;
22963;SDS011;11648;49.306;6.934;2022-09-09T11:05:41;3.87;;;0.90;;
22963;SDS011;11648;49.306;6.934;2022-09-09T11:08:24;7.70;;;1.52;;
22963;SDS011;11648;49.306;6.934;2022-09-09T11:11:03;4.47;;;1.13;;
22963;SDS011;11648;49.306;6.934;2022-09-09T11:19:35;4.18;;;0.95;;
22963;SDS011;11648;49.306;6.934;2022-09-09T11:24:55;5.28;;;0.95;;
22963;SDS011;11648;49.306;6.934;2022-09-09T11:27:37;4.95;;;1.02;;
22963;SDS011;11648;49.306;6.934;2022-09-09T11:38:44;3.90;;;1.05;;
22963;SDS011;11648;49.306;6.934;2022-09-09T11:41:18;3.33;;;0.85;;
22963;SDS011;11648;49.306;6.934;2022-09-09T11:43:48;3.88;;;0.88;;
22963;SDS011;11648;49.306;6.934;2022-09-09T11:46:19;6.22;;;1.00;;
22963;SDS011;11648;49.306;6.934;2022-09-09T11:49:02;4.32;;;1.00;;
22963;SDS011;11648;49.306;6.934;2022-09-09T11:51:32;5.10;;;1.13;;
22963;SDS011;11648;49.306;6.934;2022-09-09T11:56:45;5.20;;;0.90;;
22963;SDS011;11648;49.306;6.934;2022-09-09T11:59:20;3.60;;;1.02;;
22963;SDS011;11648;49.306;6.934;2022-09-09T12:01:57;4.57;;;0.67;;
22963;SDS011;11648;49.306;6.934;2022-09-09T12:04:38;5.17;;;1.10;;
22963;SDS011;11648;49.306;6.934;2022-09-09T12:14:42;4.60;;;1.03;;
22963;SDS011;11648;49.306;6.934;2022-09-09T12:17:22;4.95;;;1.00;;
22963;SDS011;11648;49.306;6.934;2022-09-09T12:20:09;4.47;;;0.95;;
22963;SDS011;11648;49.306;6.934;2022-09-09T12:31:25;3.88;;;0.88;;
22963;SDS011;11648;49.306;6.934;2022-09-09T12:34:11;9.13;;;1.17;;
22963;SDS011;11648;49.306;6.934;2022-09-09T12:36:43;5.32;;;0.88;;
22963;SDS011;11648;49.306;6.934;2022-09-09T12:39:25;3.80;;;0.70;;
22963;SDS011;11648;49.306;6.934;2022-09-09T12:42:04;4.37;;;0.97;;
22963;SDS011;11648;49.306;6.934;2022-09-09T12:44:31;3.97;;;0.80;;
22963;SDS011;11648;49.306;6.934;2022-09-09T12:47:00;4.03;;;0.80;;
22963;SDS011;11648;49.306;6.934;2022-09-09T12:52:04;4.87;;;0.70;;
22963;SDS011;11648;49.306;6.934;2022-09-09T12:54:34;2.63;;;0.50;;
22963;SDS011;11648;49.306;6.934;2022-09-09T12:57:03;5.70;;;0.90;;
22963;SDS011;11648;49.306;6.934;2022-09-09T12:59:35;2.67;;;0.70;;
22963;SDS011;11648;49.306;6.934;2022-09-09T13:02:16;4.20;;;0.60;;
22963;SDS011;11648;49.306;6.934;2022-09-09T13:04:46;3.03;;;0.50;;
22963;SDS011;11648;49.306;6.934;2022-09-09T13:07:13;4.17;;;0.60;;
22963;SDS011;11648;49.306;6.934;2022-09-09T13:09:43;3.73;;;0.50;;
22963;SDS011;11648;49.306;6.934;2022-09-09T13:12:16;3.60;;;0.80;;
22963;SDS011;11648;49.306;6.934;2022-09-09T13:14:50;5.77;;;0.63;;
22963;SDS011;11648;49.306;6.934;2022-09-09T13:17:23;3.00;;;0.60;;
22963;SDS011;11648;49.306;6.934;2022-09-09T13:19:51;2.07;;;0.60;;
22963;SDS011;11648;49.306;6.934;2022-09-09T13:22:35;5.97;;;0.80;;
22963;SDS011;11648;49.306;6.934;2022-09-09T13:27:52;4.20;;;0.70;;
22963;SDS011;11648;49.306;6.934;2022-09-09T13:33:06;2.83;;;0.77;;
22963;SDS011;11648;49.306;6.934;2022-09-09T13:35:46;5.13;;;0.90;;
22963;SDS011;11648;49.306;6.934;2022-09-09T13:38:20;4.40;;;0.83;;
22963;SDS011;11648;49.306;6.934;2022-09-09T13:40:53;2.73;;;0.60;;
22963;SDS011;11648;49.306;6.934;2022-09-09T13:43:38;4.67;;;0.63;;
22963;SDS011;11648;49.306;6.934;2022-09-09T13:49:23;5.10;;;0.90;;
22963;SDS011;11648;49.306;6.934;2022-09-09T13:51:50;4.73;;;0.87;;
22963;SDS011;11648;49.306;6.934;2022-09-09T13:54:20;4.43;;;0.83;;
22963;SDS011;11648;49.306;6.934;2022-09-09T13:56:47;4.10;;;1.00;;
22963;SDS011;11648;49.306;6.934;2022-09-09T13:59:17;6.17;;;1.77;;
22963;SDS011;11648;49.306;6.934;2022-09-09T14:01:46;3.13;;;1.17;;
22963;SDS011;11648;49.306;6.934;2022-09-09T14:04:13;3.23;;;0.80;;
22963;SDS011;11648;49.306;6.934;2022-09-09T14:06:42;3.43;;;0.80;;
22963;SDS011;11648;49.306;6.934;2022-09-09T14:09:11;3.77;;;0.80;;
22963;SDS011;11648;49.306;6.934;2022-09-09T14:11:39;2.67;;;0.60;;
22963;SDS011;11648;49.306;6.934;2022-09-09T14:14:06;2.30;;;0.70;;
22963;SDS011;11648;49.306;6.934;2022-09-09T14:16:33;4.23;;;0.90;;
22963;SDS011;11648;49.306;6.934;2022-09-09T14:19:00;3.87;;;1.07;;
22963;SDS011;11648;49.306;6.934;2022-09-09T14:21:27;2.43;;;0.60;;
22963;SDS011;11648;49.306;6.934;2022-09-09T14:23:54;4.13;;;1.00;;
22963;SDS011;11648;49.306;6.934;2022-09-09T14:26:24;2.00;;;0.60;;
22963;SDS011;11648;49.306;6.934;2022-09-09T14:28:52;4.13;;;0.80;;
22963;SDS011;11648;49.306;6.934;2022-09-09T14:31:22;3.33;;;0.80;;
22963;SDS011;11648;49.306;6.934;2022-09-09T14:33:49;2.67;;;0.53;;
22963;SDS011;11648;49.306;6.934;2022-09-09T14:36:17;2.87;;;0.60;;
22963;SDS011;11648;49.306;6.934;2022-09-09T14:38:44;2.97;;;0.73;;
22963;SDS011;11648;49.306;6.934;2022-09-09T14:41:11;4.40;;;0.67;;
22963;SDS011;11648;49.306;6.934;2022-09-09T14:43:43;2.07;;;0.50;;
22963;SDS011;11648;49.306;6.934;2022-09-09T14:46:12;2.03;;;0.57;;
22963;SDS011;11648;49.306;6.934;2022-09-09T14:48:41;4.27;;;0.90;;
22963;SDS011;11648;49.306;6.934;2022-09-09T14:51:15;3.07;;;0.50;;
22963;SDS011;11648;49.306;6.934;2022-09-09T14:53:46;3.80;;;0.70;;
22963;SDS011;11648;49.306;6.934;2022-09-09T14:56:17;3.47;;;0.83;;
22963;SDS011;11648;49.306;6.934;2022-09-09T14:58:45;3.43;;;0.50;;
22963;SDS011;11648;49.306;6.934;2022-09-09T15:01:13;4.27;;;0.60;;
22963;SDS011;11648;49.306;6.934;2022-09-09T15:03:43;2.93;;;0.50;;
22963;SDS011;11648;49.306;6.934;2022-09-09T15:06:16;1.87;;;0.53;;
22963;SDS011;11648;49.306;6.934;2022-09-09T15:08:44;1.53;;;0.43;;
22963;SDS011;11648;49.306;6.934;2022-09-09T15:11:13;1.83;;;0.60;;
22963;SDS011;11648;49.306;6.934;2022-09-09T15:13:41;2.47;;;0.40;;
22963;SDS011;11648;49.306;6.934;2022-09-09T15:16:13;2.83;;;0.80;;
22963;SDS011;11648;49.306;6.934;2022-09-09T15:18:42;3.97;;;0.63;;
22963;SDS011;11648;49.306;6.934;2022-09-09T15:23:39;4.50;;;0.90;;
22963;SDS011;11648;49.306;6.934;2022-09-09T15:26:06;5.03;;;1.30;;
22963;SDS011;11648;49.306;6.934;2022-09-09T15:28:34;3.63;;;0.87;;
22963;SDS011;11648;49.306;6.934;2022-09-09T15:31:08;6.93;;;1.20;;
22963;SDS011;11648;49.306;6.934;2022-09-09T15:36:19;5.53;;;0.70;;
22963;SDS011;11648;49.306;6.934;2022-09-09T15:38:48;3.33;;;0.70;;
22963;SDS011;11648;49.306;6.934;2022-09-09T15:41:16;4.77;;;0.77;;
22963;SDS011;11648;49.306;6.934;2022-09-09T15:43:45;3.40;;;0.80;;
22963;SDS011;11648;49.306;6.934;2022-09-09T15:46:27;3.53;;;0.90;;
22963;SDS011;11648;49.306;6.934;2022-09-09T15:51:31;4.47;;;0.33;;
22963;SDS011;11648;49.306;6.934;2022-09-09T15:54:15;1.80;;;0.37;;
22963;SDS011;11648;49.306;6.934;2022-09-09T15:56:47;1.80;;;0.30;;
22963;SDS011;11648;49.306;6.934;2022-09-09T15:59:22;1.43;;;0.40;;
22963;SDS011;11648;49.306;6.934;2022-09-09T16:01:50;2.20;;;0.40;;
22963;SDS011;11648;49.306;6.934;2022-09-09T16:04:21;0.97;;;0.30;;
22963;SDS011;11648;49.306;6.934;2022-09-09T16:06:56;0.97;;;0.23;;
22963;SDS011;11648;49.306;6.934;2022-09-09T16:09:30;2.23;;;0.40;;
22963;SDS011;11648;49.306;6.934;2022-09-09T16:11:59;1.53;;;0.40;;
22963;SDS011;11648;49.306;6.934;2022-09-09T16:14:29;2.20;;;0.40;;
22963;SDS011;11648;49.306;6.934;2022-09-09T16:17:00;3.20;;;0.63;;
22963;SDS011;11648;49.306;6.934;2022-09-09T16:19:27;5.27;;;0.70;;
22963;SDS011;11648;49.306;6.934;2022-09-09T16:21:54;2.40;;;0.60;;
22963;SDS011;11648;49.306;6.934;2022-09-09T16:24:21;3.27;;;0.73;;
22963;SDS011;11648;49.306;6.934;2022-09-09T16:26:49;2.33;;;0.63;;
22963;SDS011;11648;49.306;6.934;2022-09-09T16:29:18;3.67;;;0.70;;
22963;SDS011;11648;49.306;6.934;2022-09-09T16:31:45;1.37;;;0.43;;
22963;SDS011;11648;49.306;6.934;2022-09-09T16:34:13;1.83;;;0.40;;
22963;SDS011;11648;49.306;6.934;2022-09-09T16:36:42;4.90;;;0.80;;
22963;SDS011;11648;49.306;6.934;2022-09-09T16:39:12;2.07;;;0.50;;
22963;SDS011;11648;49.306;6.934;2022-09-09T16:41:40;2.80;;;0.77;;
22963;SDS011;11648;49.306;6.934;2022-09-09T16:44:09;3.37;;;0.80;;
22963;SDS011;11648;49.306;6.934;2022-09-09T16:46:38;2.30;;;0.60;;
22963;SDS011;11648;49.306;6.934;2022-09-09T16:49:10;2.67;;;0.83;;
22963;SDS011;11648;49.306;6.934;2022-09-09T16:51:40;1.60;;;0.60;;
22963;SDS011;11648;49.306;6.934;2022-09-09T16:54:19;1.97;;;0.57;;
22963;SDS011;11648;49.306;6.934;2022-09-09T16:56:46;2.87;;;0.80;;
22963;SDS011;11648;49.306;6.934;2022-09-09T16:59:15;2.83;;;0.70;;
22963;SDS011;11648;49.306;6.934;2022-09-09T17:01:47;3.17;;;0.60;;
22963;SDS011;11648;49.306;6.934;2022-09-09T17:04:16;3.07;;;0.60;;
22963;SDS011;11648;49.306;6.934;2022-09-09T17:06:50;3.70;;;0.80;;
22963;SDS011;11648;49.306;6.934;2022-09-09T17:09:19;4.20;;;0.83;;
22963;SDS011;11648;49.306;6.934;2022-09-09T17:11:47;3.23;;;0.60;;
22963;SDS011;11648;49.306;6.934;2022-09-09T17:14:15;6.67;;;1.10;;
22963;SDS011;11648;49.306;6.934;2022-09-09T17:16:43;3.57;;;0.87;;
22963;SDS011;11648;49.306;6.934;2022-09-09T17:19:11;5.07;;;1.00;;
22963;SDS011;11648;49.306;6.934;2022-09-09T17:21:38;3.90;;;0.90;;
22963;SDS011;11648;49.306;6.934;2022-09-09T17:24:26;4.40;;;0.97;;
22963;SDS011;11648;49.306;6.934;2022-09-09T17:26:53;4.03;;;0.70;;
22963;SDS011;11648;49.306;6.934;2022-09-09T17:29:21;4.77;;;0.93;;
22963;SDS011;11648;49.306;6.934;2022-09-09T17:31:48;5.83;;;0.83;;
22963;SDS011;11648;49.306;6.934;2022-09-09T17:34:14;3.47;;;0.90;;
22963;SDS011;11648;49.306;6.934;2022-09-09T17:36:41;2.90;;;0.80;;
22963;SDS011;11648;49.306;6.934;2022-09-09T17:39:08;4.83;;;0.97;;